sensor_id;sensor_type;location;lat;lon;timestamp;P1;durP1;ratioP1;P2;durP2;ratioP2
1404;SDS011;697;51.114;6.542;2023-02-01T00:00:11;21.30;;;10.10;;
1404;SDS011;697;51.114;6.542;2023-02-01T00:02:38;16.33;;;9.13;;
1404;SDS011;697;51.114;6.542;2023-02-01T00:05:06;18.43;;;9.87;;
1404;SDS011;697;51.114;6.542;2023-02-01T00:07:35;21.50;;;10.03;;
1404;SDS011;697;51.114;6.542;2023-02-01T00:10:03;24.27;;;10.53;;
1404;SDS011;697;51.114;6.542;2023-02-01T00:12:30;18.83;;;9.10;;
1404;SDS011;697;51.114;6.542;2023-02-01T00:14:57;14.23;;;8.10;;
1404;SDS011;697;51.114;6.542;2023-02-01T00:17:24;27.27;;;7.80;;
1404;SDS011;697;51.114;6.542;2023-02-01T00:19:51;19.60;;;7.73;;
1404;SDS011;697;51.114;6.542;2023-02-01T00:22:18;13.50;;;7.07;;
1404;SDS011;697;51.114;6.542;2023-02-01T00:24:46;21.77;;;7.77;;
1404;SDS011;697;51.114;6.542;2023-02-01T00:27:13;23.77;;;6.57;;
1404;SDS011;697;51.114;6.542;2023-02-01T00:29:43;19.60;;;6.70;;
1404;SDS011;697;51.114;6.542;2023-02-01T00:32:10;12.77;;;6.07;;
1404;SDS011;697;51.114;6.542;2023-02-01T00:34:37;16.80;;;6.53;;
1404;SDS011;697;51.114;6.542;2023-02-01T00:37:04;15.97;;;6.00;;
1404;SDS011;697;51.114;6.542;2023-02-01T00:39:31;16.67;;;5.90;;
1404;SDS011;697;51.114;6.542;2023-02-01T00:42:00;11.10;;;4.90;;
1404;SDS011;697;51.114;6.542;2023-02-01T00:44:27;15.10;;;4.40;;
1404;SDS011;697;51.114;6.542;2023-02-01T00:46:58;17.07;;;5.00;;
1404;SDS011;697;51.114;6.542;2023-02-01T00:49:25;14.73;;;4.93;;
1404;SDS011;697;51.114;6.542;2023-02-01T00:51:52;16.47;;;5.10;;
1404;SDS011;697;51.114;6.542;2023-02-01T00:54:19;13.30;;;4.53;;
1404;SDS011;697;51.114;6.542;2023-02-01T00:56:46;13.10;;;4.30;;
1404;SDS011;697;51.114;6.542;2023-02-01T00:59:14;14.23;;;4.27;;
1404;SDS011;697;51.114;6.542;2023-02-01T01:01:41;16.47;;;5.10;;
1404;SDS011;697;51.114;6.542;2023-02-01T01:04:07;12.17;;;4.80;;
1404;SDS011;697;51.114;6.542;2023-02-01T01:06:35;13.30;;;4.17;;
1404;SDS011;697;51.114;6.542;2023-02-01T01:09:02;16.27;;;4.20;;
1404;SDS011;697;51.114;6.542;2023-02-01T01:11:31;12.03;;;4.40;;
1404;SDS011;697;51.114;6.542;2023-02-01T01:13:59;11.83;;;4.50;;
1404;SDS011;697;51.114;6.542;2023-02-01T01:16:29;15.10;;;4.60;;
1404;SDS011;697;51.114;6.542;2023-02-01T01:18:57;16.33;;;3.90;;
1404;SDS011;697;51.114;6.542;2023-02-01T01:21:24;10.50;;;3.60;;
1404;SDS011;697;51.114;6.542;2023-02-01T01:23:51;11.53;;;4.00;;
1404;SDS011;697;51.114;6.542;2023-02-01T01:26:19;16.17;;;4.70;;
1404;SDS011;697;51.114;6.542;2023-02-01T01:28:47;14.67;;;3.97;;
1404;SDS011;697;51.114;6.542;2023-02-01T01:31:15;18.40;;;4.43;;
1404;SDS011;697;51.114;6.542;2023-02-01T01:33:46;15.93;;;4.07;;
1404;SDS011;697;51.114;6.542;2023-02-01T01:36:14;20.43;;;5.37;;
1404;SDS011;697;51.114;6.542;2023-02-01T01:38:41;13.90;;;4.70;;
1404;SDS011;697;51.114;6.542;2023-02-01T01:41:11;12.73;;;4.50;;
1404;SDS011;697;51.114;6.542;2023-02-01T01:43:52;12.50;;;4.43;;
1404;SDS011;697;51.114;6.542;2023-02-01T01:46:21;17.20;;;4.80;;
1404;SDS011;697;51.114;6.542;2023-02-01T01:48:52;10.93;;;4.33;;
1404;SDS011;697;51.114;6.542;2023-02-01T01:51:26;15.70;;;5.20;;
1404;SDS011;697;51.114;6.542;2023-02-01T01:54:00;12.33;;;4.07;;
1404;SDS011;697;51.114;6.542;2023-02-01T01:56:30;18.90;;;4.30;;
1404;SDS011;697;51.114;6.542;2023-02-01T01:59:00;14.50;;;4.60;;
1404;SDS011;697;51.114;6.542;2023-02-01T02:01:27;12.53;;;4.63;;
1404;SDS011;697;51.114;6.542;2023-02-01T02:03:57;14.30;;;4.30;;
1404;SDS011;697;51.114;6.542;2023-02-01T02:06:28;14.30;;;4.00;;
1404;SDS011;697;51.114;6.542;2023-02-01T02:09:03;9.20;;;4.23;;
1404;SDS011;697;51.114;6.542;2023-02-01T02:11:30;16.73;;;4.80;;
1404;SDS011;697;51.114;6.542;2023-02-01T02:13:57;18.57;;;4.10;;
1404;SDS011;697;51.114;6.542;2023-02-01T02:16:33;12.80;;;5.73;;
1404;SDS011;697;51.114;6.542;2023-02-01T02:22:46;21.90;;;5.00;;
1404;SDS011;697;51.114;6.542;2023-02-01T02:28:30;10.50;;;4.50;;
1404;SDS011;697;51.114;6.542;2023-02-01T02:34:10;15.80;;;6.13;;
1404;SDS011;697;51.114;6.542;2023-02-01T02:36:47;19.73;;;6.30;;
1404;SDS011;697;51.114;6.542;2023-02-01T02:39:23;15.70;;;4.93;;
1404;SDS011;697;51.114;6.542;2023-02-01T02:42:01;12.40;;;4.80;;
1404;SDS011;697;51.114;6.542;2023-02-01T02:44:53;17.87;;;4.30;;
1404;SDS011;697;51.114;6.542;2023-02-01T02:47:43;17.33;;;5.27;;
1404;SDS011;697;51.114;6.542;2023-02-01T02:50:20;25.93;;;5.17;;
1404;SDS011;697;51.114;6.542;2023-02-01T02:53:11;13.23;;;3.90;;
1404;SDS011;697;51.114;6.542;2023-02-01T02:56:07;13.83;;;4.50;;
1404;SDS011;697;51.114;6.542;2023-02-01T02:58:53;16.23;;;4.53;;
1404;SDS011;697;51.114;6.542;2023-02-01T03:01:38;26.73;;;5.23;;
1404;SDS011;697;51.114;6.542;2023-02-01T03:04:24;16.57;;;5.60;;
1404;SDS011;697;51.114;6.542;2023-02-01T03:06:53;16.47;;;5.90;;
1404;SDS011;697;51.114;6.542;2023-02-01T03:09:22;15.70;;;5.33;;
1404;SDS011;697;51.114;6.542;2023-02-01T03:11:52;17.30;;;5.00;;
1404;SDS011;697;51.114;6.542;2023-02-01T03:14:41;18.80;;;5.30;;
1404;SDS011;697;51.114;6.542;2023-02-01T03:17:13;24.67;;;5.40;;
1404;SDS011;697;51.114;6.542;2023-02-01T03:19:45;18.03;;;5.13;;
1404;SDS011;697;51.114;6.542;2023-02-01T03:22:16;14.97;;;4.70;;
1404;SDS011;697;51.114;6.542;2023-02-01T03:24:46;12.53;;;4.70;;
1404;SDS011;697;51.114;6.542;2023-02-01T03:27:20;15.00;;;4.50;;
1404;SDS011;697;51.114;6.542;2023-02-01T03:29:51;14.93;;;5.57;;
1404;SDS011;697;51.114;6.542;2023-02-01T03:32:25;18.83;;;4.97;;
1404;SDS011;697;51.114;6.542;2023-02-01T03:34:52;19.03;;;4.93;;
1404;SDS011;697;51.114;6.542;2023-02-01T03:37:21;15.97;;;4.10;;
1404;SDS011;697;51.114;6.542;2023-02-01T03:39:52;14.13;;;4.30;;
1404;SDS011;697;51.114;6.542;2023-02-01T03:42:24;15.13;;;5.23;;
1404;SDS011;697;51.114;6.542;2023-02-01T03:44:57;13.80;;;4.73;;
1404;SDS011;697;51.114;6.542;2023-02-01T03:47:33;16.70;;;4.57;;
1404;SDS011;697;51.114;6.542;2023-02-01T03:50:03;21.97;;;4.67;;
1404;SDS011;697;51.114;6.542;2023-02-01T03:52:34;13.97;;;4.13;;
1404;SDS011;697;51.114;6.542;2023-02-01T03:55:06;15.10;;;4.40;;
1404;SDS011;697;51.114;6.542;2023-02-01T03:57:34;18.23;;;4.70;;
1404;SDS011;697;51.114;6.542;2023-02-01T04:00:04;11.70;;;4.70;;
1404;SDS011;697;51.114;6.542;2023-02-01T04:02:35;25.33;;;5.03;;
1404;SDS011;697;51.114;6.542;2023-02-01T04:05:01;16.53;;;4.10;;
1404;SDS011;697;51.114;6.542;2023-02-01T04:07:28;16.87;;;4.00;;
1404;SDS011;697;51.114;6.542;2023-02-01T04:09:56;14.80;;;4.00;;
1404;SDS011;697;51.114;6.542;2023-02-01T04:12:23;17.40;;;5.33;;
1404;SDS011;697;51.114;6.542;2023-02-01T04:14:50;13.93;;;4.33;;
1404;SDS011;697;51.114;6.542;2023-02-01T04:17:17;20.30;;;5.30;;
1404;SDS011;697;51.114;6.542;2023-02-01T04:19:43;13.30;;;4.53;;
1404;SDS011;697;51.114;6.542;2023-02-01T04:22:11;16.10;;;3.83;;
1404;SDS011;697;51.114;6.542;2023-02-01T04:24:38;14.30;;;3.90;;
1404;SDS011;697;51.114;6.542;2023-02-01T04:27:06;13.27;;;4.67;;
1404;SDS011;697;51.114;6.542;2023-02-01T04:29:33;22.53;;;4.87;;
1404;SDS011;697;51.114;6.542;2023-02-01T04:31:59;18.17;;;4.50;;
1404;SDS011;697;51.114;6.542;2023-02-01T04:34:26;16.00;;;3.63;;
1404;SDS011;697;51.114;6.542;2023-02-01T04:36:53;22.77;;;4.87;;
1404;SDS011;697;51.114;6.542;2023-02-01T04:39:20;21.57;;;5.87;;
1404;SDS011;697;51.114;6.542;2023-02-01T04:41:48;15.67;;;3.80;;
1404;SDS011;697;51.114;6.542;2023-02-01T04:44:17;13.40;;;4.37;;
1404;SDS011;697;51.114;6.542;2023-02-01T04:46:44;17.30;;;4.10;;
1404;SDS011;697;51.114;6.542;2023-02-01T04:49:12;21.17;;;5.00;;
1404;SDS011;697;51.114;6.542;2023-02-01T04:51:40;12.10;;;3.73;;
1404;SDS011;697;51.114;6.542;2023-02-01T04:54:07;18.33;;;4.43;;
1404;SDS011;697;51.114;6.542;2023-02-01T04:56:36;12.83;;;3.77;;
1404;SDS011;697;51.114;6.542;2023-02-01T04:59:03;16.80;;;3.60;;
1404;SDS011;697;51.114;6.542;2023-02-01T05:01:31;17.50;;;4.60;;
1404;SDS011;697;51.114;6.542;2023-02-01T05:03:58;11.37;;;4.10;;
1404;SDS011;697;51.114;6.542;2023-02-01T05:06:25;22.23;;;4.73;;
1404;SDS011;697;51.114;6.542;2023-02-01T05:08:52;15.10;;;3.63;;
1404;SDS011;697;51.114;6.542;2023-02-01T05:11:19;12.87;;;3.80;;
1404;SDS011;697;51.114;6.542;2023-02-01T05:14:03;17.40;;;4.47;;
1404;SDS011;697;51.114;6.542;2023-02-01T05:16:31;18.33;;;4.67;;
1404;SDS011;697;51.114;6.542;2023-02-01T05:18:58;13.83;;;3.57;;
1404;SDS011;697;51.114;6.542;2023-02-01T05:21:25;20.07;;;4.27;;
1404;SDS011;697;51.114;6.542;2023-02-01T05:23:52;13.10;;;4.17;;
1404;SDS011;697;51.114;6.542;2023-02-01T05:26:38;11.07;;;3.33;;
1404;SDS011;697;51.114;6.542;2023-02-01T05:29:05;15.27;;;3.67;;
1404;SDS011;697;51.114;6.542;2023-02-01T05:31:35;11.37;;;3.10;;
1404;SDS011;697;51.114;6.542;2023-02-01T05:34:02;14.30;;;4.50;;
1404;SDS011;697;51.114;6.542;2023-02-01T05:36:30;16.23;;;3.10;;
1404;SDS011;697;51.114;6.542;2023-02-01T05:38:57;14.37;;;3.10;;
1404;SDS011;697;51.114;6.542;2023-02-01T05:41:23;17.60;;;4.03;;
1404;SDS011;697;51.114;6.542;2023-02-01T05:43:50;18.57;;;4.17;;
1404;SDS011;697;51.114;6.542;2023-02-01T05:46:17;13.13;;;3.10;;
1404;SDS011;697;51.114;6.542;2023-02-01T05:48:46;19.07;;;4.27;;
1404;SDS011;697;51.114;6.542;2023-02-01T05:51:12;14.50;;;3.40;;
1404;SDS011;697;51.114;6.542;2023-02-01T05:53:39;17.10;;;4.83;;
1404;SDS011;697;51.114;6.542;2023-02-01T05:56:06;15.53;;;4.10;;
1404;SDS011;697;51.114;6.542;2023-02-01T05:58:33;18.30;;;4.03;;
1404;SDS011;697;51.114;6.542;2023-02-01T06:01:00;16.30;;;3.90;;
1404;SDS011;697;51.114;6.542;2023-02-01T06:03:27;24.70;;;4.27;;
1404;SDS011;697;51.114;6.542;2023-02-01T06:05:56;16.63;;;4.60;;
1404;SDS011;697;51.114;6.542;2023-02-01T06:08:22;14.10;;;3.13;;
1404;SDS011;697;51.114;6.542;2023-02-01T06:10:50;18.50;;;5.47;;
1404;SDS011;697;51.114;6.542;2023-02-01T06:13:23;11.13;;;3.63;;
1404;SDS011;697;51.114;6.542;2023-02-01T06:15:50;17.97;;;5.03;;
1404;SDS011;697;51.114;6.542;2023-02-01T06:18:17;21.23;;;3.23;;
1404;SDS011;697;51.114;6.542;2023-02-01T06:20:44;20.60;;;4.60;;
1404;SDS011;697;51.114;6.542;2023-02-01T06:23:12;23.50;;;3.80;;
1404;SDS011;697;51.114;6.542;2023-02-01T06:25:39;16.77;;;4.07;;
1404;SDS011;697;51.114;6.542;2023-02-01T06:28:05;12.63;;;3.53;;
1404;SDS011;697;51.114;6.542;2023-02-01T06:30:33;16.90;;;5.50;;
1404;SDS011;697;51.114;6.542;2023-02-01T06:32:59;13.43;;;3.60;;
1404;SDS011;697;51.114;6.542;2023-02-01T06:35:26;17.03;;;3.47;;
1404;SDS011;697;51.114;6.542;2023-02-01T06:37:53;15.73;;;4.37;;
1404;SDS011;697;51.114;6.542;2023-02-01T06:40:21;12.07;;;3.50;;
1404;SDS011;697;51.114;6.542;2023-02-01T06:42:48;14.57;;;4.50;;
1404;SDS011;697;51.114;6.542;2023-02-01T06:45:15;18.53;;;4.00;;
1404;SDS011;697;51.114;6.542;2023-02-01T06:47:42;20.33;;;3.87;;
1404;SDS011;697;51.114;6.542;2023-02-01T06:50:09;18.53;;;3.80;;
1404;SDS011;697;51.114;6.542;2023-02-01T06:52:36;13.57;;;4.20;;
1404;SDS011;697;51.114;6.542;2023-02-01T06:55:03;20.77;;;4.10;;
1404;SDS011;697;51.114;6.542;2023-02-01T06:57:32;18.63;;;4.80;;
1404;SDS011;697;51.114;6.542;2023-02-01T07:00:00;14.33;;;3.47;;
1404;SDS011;697;51.114;6.542;2023-02-01T07:02:28;15.60;;;4.40;;
1404;SDS011;697;51.114;6.542;2023-02-01T07:04:54;20.43;;;4.50;;
1404;SDS011;697;51.114;6.542;2023-02-01T07:07:21;26.07;;;3.70;;
1404;SDS011;697;51.114;6.542;2023-02-01T07:09:48;25.37;;;4.50;;
1404;SDS011;697;51.114;6.542;2023-02-01T07:12:15;11.87;;;5.40;;
1404;SDS011;697;51.114;6.542;2023-02-01T07:14:44;21.80;;;4.70;;
1404;SDS011;697;51.114;6.542;2023-02-01T07:17:11;15.37;;;3.60;;
1404;SDS011;697;51.114;6.542;2023-02-01T07:19:38;19.63;;;5.10;;
1404;SDS011;697;51.114;6.542;2023-02-01T07:22:04;16.13;;;3.60;;
1404;SDS011;697;51.114;6.542;2023-02-01T07:24:31;13.00;;;3.70;;
1404;SDS011;697;51.114;6.542;2023-02-01T07:27:00;19.40;;;4.83;;
1404;SDS011;697;51.114;6.542;2023-02-01T07:29:26;21.50;;;4.00;;
1404;SDS011;697;51.114;6.542;2023-02-01T07:31:54;18.20;;;4.50;;
1404;SDS011;697;51.114;6.542;2023-02-01T07:34:21;17.47;;;4.60;;
1404;SDS011;697;51.114;6.542;2023-02-01T07:36:48;17.33;;;3.70;;
1404;SDS011;697;51.114;6.542;2023-02-01T07:39:15;17.53;;;4.10;;
1404;SDS011;697;51.114;6.542;2023-02-01T07:41:41;13.97;;;4.30;;
1404;SDS011;697;51.114;6.542;2023-02-01T07:44:09;21.20;;;4.90;;
1404;SDS011;697;51.114;6.542;2023-02-01T07:46:35;9.60;;;3.43;;
1404;SDS011;697;51.114;6.542;2023-02-01T07:49:05;22.00;;;4.53;;
1404;SDS011;697;51.114;6.542;2023-02-01T07:51:32;18.83;;;3.87;;
1404;SDS011;697;51.114;6.542;2023-02-01T07:53:59;15.20;;;3.90;;
1404;SDS011;697;51.114;6.542;2023-02-01T07:56:25;27.33;;;4.53;;
1404;SDS011;697;51.114;6.542;2023-02-01T07:58:53;16.40;;;3.50;;
1404;SDS011;697;51.114;6.542;2023-02-01T08:01:21;26.40;;;4.60;;
1404;SDS011;697;51.114;6.542;2023-02-01T08:03:49;25.60;;;4.60;;
1404;SDS011;697;51.114;6.542;2023-02-01T08:06:19;18.20;;;5.20;;
1404;SDS011;697;51.114;6.542;2023-02-01T08:08:46;14.17;;;5.40;;
1404;SDS011;697;51.114;6.542;2023-02-01T08:11:13;14.93;;;3.93;;
1404;SDS011;697;51.114;6.542;2023-02-01T08:13:41;14.13;;;3.83;;
1404;SDS011;697;51.114;6.542;2023-02-01T08:16:09;13.00;;;3.70;;
1404;SDS011;697;51.114;6.542;2023-02-01T08:18:37;27.00;;;4.40;;
1404;SDS011;697;51.114;6.542;2023-02-01T08:21:05;21.53;;;4.07;;
1404;SDS011;697;51.114;6.542;2023-02-01T08:23:35;13.00;;;3.70;;
1404;SDS011;697;51.114;6.542;2023-02-01T08:26:06;10.90;;;3.03;;
1404;SDS011;697;51.114;6.542;2023-02-01T08:28:34;14.93;;;4.50;;
1404;SDS011;697;51.114;6.542;2023-02-01T08:31:03;19.93;;;4.40;;
1404;SDS011;697;51.114;6.542;2023-02-01T08:33:32;14.33;;;3.73;;
1404;SDS011;697;51.114;6.542;2023-02-01T08:36:00;16.83;;;4.30;;
1404;SDS011;697;51.114;6.542;2023-02-01T08:38:27;16.60;;;3.83;;
1404;SDS011;697;51.114;6.542;2023-02-01T08:40:55;19.03;;;4.03;;
1404;SDS011;697;51.114;6.542;2023-02-01T08:43:23;13.80;;;4.03;;
1404;SDS011;697;51.114;6.542;2023-02-01T08:45:50;21.70;;;6.20;;
1404;SDS011;697;51.114;6.542;2023-02-01T08:48:20;16.30;;;3.57;;
1404;SDS011;697;51.114;6.542;2023-02-01T08:50:47;17.67;;;3.97;;
1404;SDS011;697;51.114;6.542;2023-02-01T08:53:14;16.60;;;4.70;;
1404;SDS011;697;51.114;6.542;2023-02-01T08:55:41;13.23;;;4.87;;
1404;SDS011;697;51.114;6.542;2023-02-01T08:58:09;13.07;;;3.90;;
1404;SDS011;697;51.114;6.542;2023-02-01T09:00:36;22.30;;;4.77;;
1404;SDS011;697;51.114;6.542;2023-02-01T09:03:03;21.47;;;5.43;;
1404;SDS011;697;51.114;6.542;2023-02-01T09:05:30;9.57;;;3.73;;
1404;SDS011;697;51.114;6.542;2023-02-01T09:07:57;21.37;;;4.50;;
1404;SDS011;697;51.114;6.542;2023-02-01T09:10:24;13.77;;;4.23;;
1404;SDS011;697;51.114;6.542;2023-02-01T09:12:51;21.77;;;4.70;;
1404;SDS011;697;51.114;6.542;2023-02-01T09:15:20;23.60;;;4.70;;
1404;SDS011;697;51.114;6.542;2023-02-01T09:17:46;16.63;;;3.87;;
1404;SDS011;697;51.114;6.542;2023-02-01T09:20:14;12.33;;;3.90;;
1404;SDS011;697;51.114;6.542;2023-02-01T09:22:41;18.03;;;4.87;;
1404;SDS011;697;51.114;6.542;2023-02-01T09:25:08;21.37;;;4.20;;
1404;SDS011;697;51.114;6.542;2023-02-01T09:27:35;15.17;;;4.73;;
1404;SDS011;697;51.114;6.542;2023-02-01T09:30:01;12.83;;;5.30;;
1404;SDS011;697;51.114;6.542;2023-02-01T09:32:31;17.67;;;4.80;;
1404;SDS011;697;51.114;6.542;2023-02-01T09:34:57;15.10;;;4.20;;
1404;SDS011;697;51.114;6.542;2023-02-01T09:37:24;21.10;;;5.10;;
1404;SDS011;697;51.114;6.542;2023-02-01T09:39:52;14.43;;;4.20;;
1404;SDS011;697;51.114;6.542;2023-02-01T09:42:25;14.97;;;4.97;;
1404;SDS011;697;51.114;6.542;2023-02-01T09:45:10;18.83;;;5.23;;
1404;SDS011;697;51.114;6.542;2023-02-01T09:47:47;15.20;;;4.43;;
1404;SDS011;697;51.114;6.542;2023-02-01T09:50:18;11.87;;;4.10;;
1404;SDS011;697;51.114;6.542;2023-02-01T09:52:51;21.03;;;5.40;;
1404;SDS011;697;51.114;6.542;2023-02-01T09:55:24;13.27;;;3.70;;
1404;SDS011;697;51.114;6.542;2023-02-01T09:58:00;20.30;;;5.23;;
1404;SDS011;697;51.114;6.542;2023-02-01T10:00:30;17.80;;;5.50;;
1404;SDS011;697;51.114;6.542;2023-02-01T10:03:05;12.23;;;4.27;;
1404;SDS011;697;51.114;6.542;2023-02-01T10:05:40;14.33;;;4.13;;
1404;SDS011;697;51.114;6.542;2023-02-01T10:08:19;18.03;;;4.80;;
1404;SDS011;697;51.114;6.542;2023-02-01T10:11:00;14.80;;;4.03;;
1404;SDS011;697;51.114;6.542;2023-02-01T10:13:44;17.67;;;4.10;;
1404;SDS011;697;51.114;6.542;2023-02-01T10:16:22;13.00;;;4.40;;
1404;SDS011;697;51.114;6.542;2023-02-01T10:19:14;14.80;;;4.17;;
1404;SDS011;697;51.114;6.542;2023-02-01T10:21:58;18.70;;;5.77;;
1404;SDS011;697;51.114;6.542;2023-02-01T10:24:36;14.87;;;4.17;;
1404;SDS011;697;51.114;6.542;2023-02-01T10:27:17;18.43;;;4.67;;
1404;SDS011;697;51.114;6.542;2023-02-01T10:29:47;15.67;;;3.93;;
1404;SDS011;697;51.114;6.542;2023-02-01T10:32:19;10.60;;;4.23;;
1404;SDS011;697;51.114;6.542;2023-02-01T10:34:51;10.13;;;3.43;;
1404;SDS011;697;51.114;6.542;2023-02-01T10:37:26;19.00;;;4.53;;
1404;SDS011;697;51.114;6.542;2023-02-01T10:39:55;17.10;;;4.30;;
1404;SDS011;697;51.114;6.542;2023-02-01T10:42:26;9.57;;;3.43;;
1404;SDS011;697;51.114;6.542;2023-02-01T10:44:54;13.30;;;4.47;;
1404;SDS011;697;51.114;6.542;2023-02-01T10:47:23;17.23;;;5.23;;
1404;SDS011;697;51.114;6.542;2023-02-01T10:49:54;25.40;;;5.33;;
1404;SDS011;697;51.114;6.542;2023-02-01T10:52:31;13.50;;;4.43;;
1404;SDS011;697;51.114;6.542;2023-02-01T10:58:00;19.20;;;4.40;;
1404;SDS011;697;51.114;6.542;2023-02-01T11:00:28;12.17;;;3.93;;
1404;SDS011;697;51.114;6.542;2023-02-01T11:03:00;16.13;;;4.90;;
1404;SDS011;697;51.114;6.542;2023-02-01T11:05:46;14.37;;;3.60;;
1404;SDS011;697;51.114;6.542;2023-02-01T11:08:14;20.30;;;6.83;;
1404;SDS011;697;51.114;6.542;2023-02-01T11:10:42;14.80;;;4.47;;
1404;SDS011;697;51.114;6.542;2023-02-01T11:13:11;12.80;;;3.97;;
1404;SDS011;697;51.114;6.542;2023-02-01T11:15:42;20.13;;;4.83;;
1404;SDS011;697;51.114;6.542;2023-02-01T11:18:17;9.30;;;5.03;;
1404;SDS011;697;51.114;6.542;2023-02-01T11:20:45;18.90;;;4.47;;
1404;SDS011;697;51.114;6.542;2023-02-01T11:23:18;17.30;;;4.80;;
1404;SDS011;697;51.114;6.542;2023-02-01T11:25:48;14.63;;;4.10;;
1404;SDS011;697;51.114;6.542;2023-02-01T11:28:17;16.53;;;4.83;;
1404;SDS011;697;51.114;6.542;2023-02-01T11:30:46;20.67;;;5.27;;
1404;SDS011;697;51.114;6.542;2023-02-01T11:33:14;15.57;;;4.77;;
1404;SDS011;697;51.114;6.542;2023-02-01T11:35:43;22.87;;;4.90;;
1404;SDS011;697;51.114;6.542;2023-02-01T11:38:15;18.60;;;3.90;;
1404;SDS011;697;51.114;6.542;2023-02-01T11:40:47;12.87;;;4.20;;
1404;SDS011;697;51.114;6.542;2023-02-01T11:43:15;18.33;;;4.93;;
1404;SDS011;697;51.114;6.542;2023-02-01T11:45:55;16.07;;;3.97;;
1404;SDS011;697;51.114;6.542;2023-02-01T11:48:23;13.00;;;5.30;;
1404;SDS011;697;51.114;6.542;2023-02-01T11:50:54;12.43;;;3.87;;
1404;SDS011;697;51.114;6.542;2023-02-01T11:53:55;10.50;;;3.27;;
1404;SDS011;697;51.114;6.542;2023-02-01T11:56:32;14.67;;;3.80;;
1404;SDS011;697;51.114;6.542;2023-02-01T11:59:09;11.73;;;3.40;;
1404;SDS011;697;51.114;6.542;2023-02-01T12:01:47;15.00;;;3.80;;
1404;SDS011;697;51.114;6.542;2023-02-01T12:04:36;13.87;;;3.63;;
1404;SDS011;697;51.114;6.542;2023-02-01T12:07:28;13.90;;;3.70;;
1404;SDS011;697;51.114;6.542;2023-02-01T12:10:07;12.73;;;3.90;;
1404;SDS011;697;51.114;6.542;2023-02-01T12:12:46;8.07;;;3.80;;
1404;SDS011;697;51.114;6.542;2023-02-01T12:15:26;8.30;;;4.10;;
1404;SDS011;697;51.114;6.542;2023-02-01T12:18:11;12.90;;;3.67;;
1404;SDS011;697;51.114;6.542;2023-02-01T12:20:56;14.77;;;3.87;;
1404;SDS011;697;51.114;6.542;2023-02-01T12:23:33;16.73;;;2.53;;
1404;SDS011;697;51.114;6.542;2023-02-01T12:26:20;10.10;;;3.17;;
1404;SDS011;697;51.114;6.542;2023-02-01T12:29:07;17.67;;;3.50;;
1404;SDS011;697;51.114;6.542;2023-02-01T12:31:48;11.93;;;3.47;;
1404;SDS011;697;51.114;6.542;2023-02-01T12:34:47;15.13;;;3.83;;
1404;SDS011;697;51.114;6.542;2023-02-01T12:37:29;13.80;;;3.90;;
1404;SDS011;697;51.114;6.542;2023-02-01T12:40:15;11.50;;;4.00;;
1404;SDS011;697;51.114;6.542;2023-02-01T12:43:04;9.23;;;2.53;;
1404;SDS011;697;51.114;6.542;2023-02-01T12:45:36;14.00;;;3.50;;
1404;SDS011;697;51.114;6.542;2023-02-01T12:48:11;12.13;;;3.37;;
1404;SDS011;697;51.114;6.542;2023-02-01T12:50:50;12.40;;;3.87;;
1404;SDS011;697;51.114;6.542;2023-02-01T12:53:20;12.07;;;3.70;;
1404;SDS011;697;51.114;6.542;2023-02-01T12:55:52;7.47;;;2.50;;
1404;SDS011;697;51.114;6.542;2023-02-01T12:58:22;10.23;;;3.20;;
1404;SDS011;697;51.114;6.542;2023-02-01T13:00:54;13.63;;;3.17;;
1404;SDS011;697;51.114;6.542;2023-02-01T13:03:29;12.73;;;2.53;;
1404;SDS011;697;51.114;6.542;2023-02-01T13:06:04;10.53;;;2.97;;
1404;SDS011;697;51.114;6.542;2023-02-01T13:08:36;11.53;;;2.90;;
1404;SDS011;697;51.114;6.542;2023-02-01T13:11:09;11.90;;;4.37;;
1404;SDS011;697;51.114;6.542;2023-02-01T13:13:44;13.37;;;3.23;;
1404;SDS011;697;51.114;6.542;2023-02-01T13:16:21;10.73;;;3.33;;
1404;SDS011;697;51.114;6.542;2023-02-01T13:18:54;10.70;;;2.97;;
1404;SDS011;697;51.114;6.542;2023-02-01T13:21:27;9.63;;;3.37;;
1404;SDS011;697;51.114;6.542;2023-02-01T13:23:58;11.33;;;3.00;;
1404;SDS011;697;51.114;6.542;2023-02-01T13:26:25;11.40;;;3.00;;
1404;SDS011;697;51.114;6.542;2023-02-01T13:28:53;11.37;;;3.57;;
1404;SDS011;697;51.114;6.542;2023-02-01T13:37:24;11.10;;;3.37;;
1404;SDS011;697;51.114;6.542;2023-02-01T13:40:04;8.20;;;2.47;;
1404;SDS011;697;51.114;6.542;2023-02-01T13:42:44;15.53;;;3.50;;
1404;SDS011;697;51.114;6.542;2023-02-01T13:45:16;12.73;;;3.03;;
1404;SDS011;697;51.114;6.542;2023-02-01T13:47:46;13.90;;;3.80;;
1404;SDS011;697;51.114;6.542;2023-02-01T13:50:20;11.00;;;3.07;;
1404;SDS011;697;51.114;6.542;2023-02-01T13:52:53;12.00;;;2.87;;
1404;SDS011;697;51.114;6.542;2023-02-01T13:55:26;16.70;;;3.10;;
1404;SDS011;697;51.114;6.542;2023-02-01T13:58:01;7.60;;;2.33;;
1404;SDS011;697;51.114;6.542;2023-02-01T14:00:33;8.93;;;2.40;;
1404;SDS011;697;51.114;6.542;2023-02-01T14:03:06;10.90;;;2.93;;
1404;SDS011;697;51.114;6.542;2023-02-01T14:08:46;11.73;;;2.90;;
1404;SDS011;697;51.114;6.542;2023-02-01T14:11:56;8.30;;;3.30;;
1404;SDS011;697;51.114;6.542;2023-02-01T14:23:27;7.80;;;2.67;;
1404;SDS011;697;51.114;6.542;2023-02-01T14:26:10;10.70;;;3.30;;
1404;SDS011;697;51.114;6.542;2023-02-01T14:28:56;11.07;;;2.77;;
1404;SDS011;697;51.114;6.542;2023-02-01T14:31:33;9.70;;;2.33;;
1404;SDS011;697;51.114;6.542;2023-02-01T14:34:15;16.93;;;4.40;;
1404;SDS011;697;51.114;6.542;2023-02-01T14:36:50;9.80;;;2.47;;
1404;SDS011;697;51.114;6.542;2023-02-01T14:39:29;12.57;;;2.93;;
1404;SDS011;697;51.114;6.542;2023-02-01T14:42:04;13.50;;;3.10;;
1404;SDS011;697;51.114;6.542;2023-02-01T14:44:48;12.03;;;3.03;;
1404;SDS011;697;51.114;6.542;2023-02-01T14:53:16;10.00;;;2.60;;
1404;SDS011;697;51.114;6.542;2023-02-01T14:55:47;10.70;;;2.33;;
1404;SDS011;697;51.114;6.542;2023-02-01T14:58:18;9.17;;;3.10;;
1404;SDS011;697;51.114;6.542;2023-02-01T15:00:53;8.57;;;2.40;;
1404;SDS011;697;51.114;6.542;2023-02-01T15:03:30;9.53;;;2.63;;
1404;SDS011;697;51.114;6.542;2023-02-01T15:06:20;10.43;;;2.80;;
1404;SDS011;697;51.114;6.542;2023-02-01T15:08:54;5.30;;;2.20;;
1404;SDS011;697;51.114;6.542;2023-02-01T15:11:24;14.13;;;3.30;;
1404;SDS011;697;51.114;6.542;2023-02-01T15:13:52;10.40;;;2.87;;
1404;SDS011;697;51.114;6.542;2023-02-01T15:16:21;11.43;;;2.73;;
1404;SDS011;697;51.114;6.542;2023-02-01T15:18:49;10.93;;;3.40;;
1404;SDS011;697;51.114;6.542;2023-02-01T15:21:17;13.30;;;2.80;;
1404;SDS011;697;51.114;6.542;2023-02-01T15:23:46;8.10;;;2.23;;
1404;SDS011;697;51.114;6.542;2023-02-01T15:26:25;10.43;;;3.57;;
1404;SDS011;697;51.114;6.542;2023-02-01T15:28:52;9.97;;;3.07;;
1404;SDS011;697;51.114;6.542;2023-02-01T15:31:31;11.60;;;2.90;;
1404;SDS011;697;51.114;6.542;2023-02-01T15:33:59;13.77;;;2.93;;
1404;SDS011;697;51.114;6.542;2023-02-01T15:36:26;11.13;;;2.97;;
1404;SDS011;697;51.114;6.542;2023-02-01T15:41:52;10.80;;;3.23;;
1404;SDS011;697;51.114;6.542;2023-02-01T15:44:28;14.60;;;2.87;;
1404;SDS011;697;51.114;6.542;2023-02-01T15:46:58;10.10;;;2.90;;
1404;SDS011;697;51.114;6.542;2023-02-01T15:49:27;9.93;;;2.80;;
1404;SDS011;697;51.114;6.542;2023-02-01T15:51:55;7.77;;;3.20;;
1404;SDS011;697;51.114;6.542;2023-02-01T15:54:25;7.50;;;2.57;;
1404;SDS011;697;51.114;6.542;2023-02-01T15:56:56;10.40;;;2.90;;
1404;SDS011;697;51.114;6.542;2023-02-01T15:59:29;10.93;;;2.40;;
1404;SDS011;697;51.114;6.542;2023-02-01T16:02:22;13.20;;;3.33;;
1404;SDS011;697;51.114;6.542;2023-02-01T16:04:55;9.77;;;2.60;;
1404;SDS011;697;51.114;6.542;2023-02-01T16:07:25;17.13;;;4.10;;
1404;SDS011;697;51.114;6.542;2023-02-01T16:09:57;13.63;;;2.67;;
1404;SDS011;697;51.114;6.542;2023-02-01T16:12:30;9.90;;;3.10;;
1404;SDS011;697;51.114;6.542;2023-02-01T16:15:00;10.73;;;3.60;;
1404;SDS011;697;51.114;6.542;2023-02-01T16:17:26;13.93;;;3.17;;
1404;SDS011;697;51.114;6.542;2023-02-01T16:19:53;12.20;;;2.20;;
1404;SDS011;697;51.114;6.542;2023-02-01T16:22:22;11.70;;;2.70;;